sensor_id;sensor_type;location;lat;lon;timestamp;pressure;altitude;pressure_sealevel;temperature;humidity
21828;BME280;11076;47.942;11.804;2023-03-03T00:03:04;94355.84;;;-1.09;100.00
21828;BME280;11076;47.942;11.804;2023-03-03T00:08:08;94366.91;;;-1.15;100.00
21828;BME280;11076;47.942;11.804;2023-03-03T00:13:19;94369.16;;;-1.21;100.00
21828;BME280;11076;47.942;11.804;2023-03-03T00:23:36;94371.94;;;-1.22;100.00
21828;BME280;11076;47.942;11.804;2023-03-03T00:28:59;94371.63;;;-1.19;100.00
21828;BME280;11076;47.942;11.804;2023-03-03T00:34:29;94370.28;;;-1.23;100.00
21828;BME280;11076;47.942;11.804;2023-03-03T00:39:37;94367.75;;;-1.15;100.00
21828;BME280;11076;47.942;11.804;2023-03-03T00:44:47;94373.53;;;-1.11;100.00
21828;BME280;11076;47.942;11.804;2023-03-03T00:49:50;94372.41;;;-1.09;100.00
21828;BME280;11076;47.942;11.804;2023-03-03T00:54:53;94375.47;;;-1.13;100.00
21828;BME280;11076;47.942;11.804;2023-03-03T00:59:55;94373.59;;;-1.21;100.00
21828;BME280;11076;47.942;11.804;2023-03-03T01:04:58;94372.22;;;-1.25;100.00
21828;BME280;11076;47.942;11.804;2023-03-03T01:10:01;94364.59;;;-1.18;100.00
21828;BME280;11076;47.942;11.804;2023-03-03T01:15:06;94367.06;;;-1.17;100.00
21828;BME280;11076;47.942;11.804;2023-03-03T01:20:11;94368.44;;;-1.13;100.00
21828;BME280;11076;47.942;11.804;2023-03-03T01:25:14;94373.53;;;-1.11;100.00
21828;BME280;11076;47.942;11.804;2023-03-03T01:30:16;94366.53;;;-1.21;100.00
21828;BME280;11076;47.942;11.804;2023-03-03T01:35:19;94364.94;;;-1.31;100.00
21828;BME280;11076;47.942;11.804;2023-03-03T01:40:26;94366.88;;;-1.33;100.00
21828;BME280;11076;47.942;11.804;2023-03-03T01:45:31;94359.31;;;-1.36;100.00
21828;BME280;11076;47.942;11.804;2023-03-03T01:55:45;94346.59;;;-1.31;100.00
21828;BME280;11076;47.942;11.804;2023-03-03T02:00:56;94348.81;;;-1.36;100.00
21828;BME280;11076;47.942;11.804;2023-03-03T02:06:16;94351.53;;;-1.28;100.00
21828;BME280;11076;47.942;11.804;2023-03-03T02:11:21;94357.66;;;-1.37;100.00
21828;BME280;11076;47.942;11.804;2023-03-03T02:16:24;94348.59;;;-1.43;100.00
21828;BME280;11076;47.942;11.804;2023-03-03T02:21:27;94338.91;;;-1.43;100.00
21828;BME280;11076;47.942;11.804;2023-03-03T02:26:31;94350.09;;;-1.41;100.00
21828;BME280;11076;47.942;11.804;2023-03-03T02:31:40;94355.03;;;-1.37;100.00
21828;BME280;11076;47.942;11.804;2023-03-03T02:36:42;94353.53;;;-1.40;100.00
21828;BME280;11076;47.942;11.804;2023-03-03T02:42:07;94354.16;;;-1.56;100.00
21828;BME280;11076;47.942;11.804;2023-03-03T02:47:20;94347.31;;;-1.67;100.00
21828;BME280;11076;47.942;11.804;2023-03-03T02:52:22;94347.38;;;-1.76;100.00
21828;BME280;11076;47.942;11.804;2023-03-03T02:57:25;94345.03;;;-1.80;100.00
21828;BME280;11076;47.942;11.804;2023-03-03T03:02:28;94343.47;;;-1.72;100.00
21828;BME280;11076;47.942;11.804;2023-03-03T03:07:32;94348.41;;;-1.69;100.00
21828;BME280;11076;47.942;11.804;2023-03-03T03:12:35;94344.53;;;-1.65;100.00
21828;BME280;11076;47.942;11.804;2023-03-03T03:17:38;94340.13;;;-1.65;100.00
21828;BME280;11076;47.942;11.804;2023-03-03T03:22:41;94345.13;;;-1.71;100.00
21828;BME280;11076;47.942;11.804;2023-03-03T03:27:43;94349.16;;;-1.77;100.00
21828;BME280;11076;47.942;11.804;2023-03-03T03:32:47;94343.66;;;-1.84;100.00
21828;BME280;11076;47.942;11.804;2023-03-03T03:37:50;94346.59;;;-1.87;100.00
21828;BME280;11076;47.942;11.804;2023-03-03T03:42:53;94346.38;;;-1.75;100.00
21828;BME280;11076;47.942;11.804;2023-03-03T03:47:57;94349.59;;;-1.82;100.00
21828;BME280;11076;47.942;11.804;2023-03-03T03:53:00;94347.16;;;-1.93;100.00
21828;BME280;11076;47.942;11.804;2023-03-03T03:58:04;94349.81;;;-2.03;100.00
21828;BME280;11076;47.942;11.804;2023-03-03T04:03:07;94350.47;;;-1.91;100.00
21828;BME280;11076;47.942;11.804;2023-03-03T04:08:10;94353.97;;;-1.72;100.00
21828;BME280;11076;47.942;11.804;2023-03-03T04:13:13;94351.78;;;-1.49;100.00
21828;BME280;11076;47.942;11.804;2023-03-03T04:18:16;94369.88;;;-1.28;100.00
21828;BME280;11076;47.942;11.804;2023-03-03T04:23:20;94353.03;;;-1.08;100.00
21828;BME280;11076;47.942;11.804;2023-03-03T04:28:26;94356.53;;;-0.89;100.00
21828;BME280;11076;47.942;11.804;2023-03-03T04:33:28;94352.69;;;-0.77;100.00
21828;BME280;11076;47.942;11.804;2023-03-03T04:38:32;94355.59;;;-0.62;100.00
21828;BME280;11076;47.942;11.804;2023-03-03T04:43:35;94358.66;;;-0.49;100.00
21828;BME280;11076;47.942;11.804;2023-03-03T04:48:39;94356.91;;;-0.40;100.00
21828;BME280;11076;47.942;11.804;2023-03-03T04:53:41;94354.06;;;-0.29;100.00
21828;BME280;11076;47.942;11.804;2023-03-03T04:58:44;94362.63;;;-0.27;100.00
21828;BME280;11076;47.942;11.804;2023-03-03T05:03:47;94354.50;;;-0.15;100.00
21828;BME280;11076;47.942;11.804;2023-03-03T05:08:49;94355.50;;;-0.08;100.00
21828;BME280;11076;47.942;11.804;2023-03-03T05:13:52;94362.63;;;-0.01;100.00
21828;BME280;11076;47.942;11.804;2023-03-03T05:18:54;94361.19;;;0.05;100.00
21828;BME280;11076;47.942;11.804;2023-03-03T05:23:57;94358.94;;;0.10;100.00
21828;BME280;11076;47.942;11.804;2023-03-03T05:28:59;94370.16;;;0.21;100.00
21828;BME280;11076;47.942;11.804;2023-03-03T05:34:02;94362.94;;;0.23;100.00
21828;BME280;11076;47.942;11.804;2023-03-03T05:39:04;94363.63;;;0.33;100.00
21828;BME280;11076;47.942;11.804;2023-03-03T05:44:07;94363.00;;;0.39;100.00
21828;BME280;11076;47.942;11.804;2023-03-03T05:49:09;94364.03;;;0.46;100.00
21828;BME280;11076;47.942;11.804;2023-03-03T05:54:12;94360.13;;;0.58;100.00
21828;BME280;11076;47.942;11.804;2023-03-03T05:59:14;94370.34;;;0.62;100.00
21828;BME280;11076;47.942;11.804;2023-03-03T06:04:16;94382.53;;;0.71;100.00
21828;BME280;11076;47.942;11.804;2023-03-03T06:09:19;94383.22;;;0.73;100.00
21828;BME280;11076;47.942;11.804;2023-03-03T06:14:22;94395.94;;;0.86;100.00
21828;BME280;11076;47.942;11.804;2023-03-03T06:19:27;94397.75;;;0.93;100.00
21828;BME280;11076;47.942;11.804;2023-03-03T06:24:29;94405.16;;;0.90;100.00
21828;BME280;11076;47.942;11.804;2023-03-03T06:29:32;94404.72;;;1.03;100.00
21828;BME280;11076;47.942;11.804;2023-03-03T06:34:35;94409.19;;;1.10;100.00
21828;BME280;11076;47.942;11.804;2023-03-03T06:39:37;94412.16;;;1.15;100.00
21828;BME280;11076;47.942;11.804;2023-03-03T06:44:40;94415.94;;;1.21;100.00
21828;BME280;11076;47.942;11.804;2023-03-03T06:49:42;94415.94;;;1.21;100.00
21828;BME280;11076;47.942;11.804;2023-03-03T06:54:45;94425.53;;;1.30;100.00
21828;BME280;11076;47.942;11.804;2023-03-03T06:59:51;94422.38;;;1.35;100.00
21828;BME280;11076;47.942;11.804;2023-03-03T07:04:55;94426.03;;;1.34;100.00
21828;BME280;11076;47.942;11.804;2023-03-03T07:09:58;94436.72;;;1.32;100.00
21828;BME280;11076;47.942;11.804;2023-03-03T07:15:26;94431.16;;;1.35;100.00
21828;BME280;11076;47.942;11.804;2023-03-03T07:20:35;94441.03;;;1.50;100.00
21828;BME280;11076;47.942;11.804;2023-03-03T07:25:40;94447.00;;;1.68;100.00
21828;BME280;11076;47.942;11.804;2023-03-03T07:30:42;94447.19;;;1.83;100.00
21828;BME280;11076;47.942;11.804;2023-03-03T07:35:45;94453.59;;;1.89;100.00
21828;BME280;11076;47.942;11.804;2023-03-03T07:40:51;94453.44;;;1.98;100.00
21828;BME280;11076;47.942;11.804;2023-03-03T07:46:01;94463.81;;;2.00;100.00
21828;BME280;11076;47.942;11.804;2023-03-03T07:51:24;94469.44;;;1.97;100.00
21828;BME280;11076;47.942;11.804;2023-03-03T07:56:29;94475.03;;;1.94;100.00
21828;BME280;11076;47.942;11.804;2023-03-03T08:01:36;94472.09;;;2.05;100.00
21828;BME280;11076;47.942;11.804;2023-03-03T08:07:01;94483.97;;;2.09;100.00
21828;BME280;11076;47.942;11.804;2023-03-03T08:17:35;94483.28;;;2.32;100.00
21828;BME280;11076;47.942;11.804;2023-03-03T08:22:40;94489.88;;;2.36;100.00
21828;BME280;11076;47.942;11.804;2023-03-03T08:27:43;94484.56;;;2.52;100.00
21828;BME280;11076;47.942;11.804;2023-03-03T08:32:46;94492.16;;;2.64;100.00
21828;BME280;11076;47.942;11.804;2023-03-03T08:37:48;94484.56;;;2.69;100.00
21828;BME280;11076;47.942;11.804;2023-03-03T08:42:50;94487.81;;;2.87;100.00
21828;BME280;11076;47.942;11.804;2023-03-03T08:47:53;94478.63;;;3.23;100.00
21828;BME280;11076;47.942;11.804;2023-03-03T08:52:56;94483.97;;;3.46;100.00
21828;BME280;11076;47.942;11.804;2023-03-03T08:57:58;94479.72;;;3.68;100.00
21828;BME280;11076;47.942;11.804;2023-03-03T09:03:01;94484.44;;;3.81;100.00
21828;BME280;11076;47.942;11.804;2023-03-03T09:08:05;94478.34;;;4.03;100.00
21828;BME280;11076;47.942;11.804;2023-03-03T09:13:16;94491.88;;;4.08;100.00
21828;BME280;11076;47.942;11.804;2023-03-03T09:18:24;94502.25;;;4.10;100.00
21828;BME280;11076;47.942;11.804;2023-03-03T09:23:36;94506.81;;;4.24;100.00
21828;BME280;11076;47.942;11.804;2023-03-03T09:28:39;94502.84;;;4.43;100.00
21828;BME280;11076;47.942;11.804;2023-03-03T09:33:45;94509.22;;;4.72;100.00
21828;BME280;11076;47.942;11.804;2023-03-03T09:38:48;94507.53;;;5.24;100.00
21828;BME280;11076;47.942;11.804;2023-03-03T09:54:31;94524.56;;;5.81;97.10
21828;BME280;11076;47.942;11.804;2023-03-03T09:59:47;94526.44;;;5.95;96.80
21828;BME280;11076;47.942;11.804;2023-03-03T10:10:55;94524.09;;;5.92;91.89
21828;BME280;11076;47.942;11.804;2023-03-03T10:32:34;94530.13;;;6.59;89.99
21828;BME280;11076;47.942;11.804;2023-03-03T10:49:21;94541.75;;;5.85;85.17
21828;BME280;11076;47.942;11.804;2023-03-03T10:54:43;94542.03;;;5.90;85.70
21828;BME280;11076;47.942;11.804;2023-03-03T11:05:21;94537.03;;;5.95;85.84
21828;BME280;11076;47.942;11.804;2023-03-03T11:10:31;94544.34;;;5.93;84.01
21828;BME280;11076;47.942;11.804;2023-03-03T11:15:53;94538.53;;;6.19;83.56
21828;BME280;11076;47.942;11.804;2023-03-03T11:21:56;94543.66;;;6.42;83.86
21828;BME280;11076;47.942;11.804;2023-03-03T11:26:34;94540.63;;;6.67;81.88
21828;BME280;11076;47.942;11.804;2023-03-03T11:31:54;94544.72;;;6.91;83.15
21828;BME280;11076;47.942;11.804;2023-03-03T11:37:03;94537.75;;;7.18;82.20
21828;BME280;11076;47.942;11.804;2023-03-03T11:47:30;94530.03;;;7.58;81.78
21828;BME280;11076;47.942;11.804;2023-03-03T11:58:19;94518.25;;;7.39;77.69
21828;BME280;11076;47.942;11.804;2023-03-03T12:03:28;94511.81;;;7.62;77.97
21828;BME280;11076;47.942;11.804;2023-03-03T12:09:08;94504.97;;;7.87;78.56
21828;BME280;11076;47.942;11.804;2023-03-03T12:36:09;94479.72;;;8.38;74.82
21828;BME280;11076;47.942;11.804;2023-03-03T12:46:45;94485.56;;;8.00;72.38
21828;BME280;11076;47.942;11.804;2023-03-03T12:52:22;94491.66;;;7.87;71.97
21828;BME280;11076;47.942;11.804;2023-03-03T13:08:16;94484.56;;;8.21;73.71
21828;BME280;11076;47.942;11.804;2023-03-03T13:13:23;94489.19;;;8.61;73.61
21828;BME280;11076;47.942;11.804;2023-03-03T13:39:59;94495.41;;;8.13;72.58
21828;BME280;11076;47.942;11.804;2023-03-03T13:45:15;94487.88;;;8.30;72.70
21828;BME280;11076;47.942;11.804;2023-03-03T13:50:25;94484.09;;;7.84;73.15
21828;BME280;11076;47.942;11.804;2023-03-03T14:00:59;94468.41;;;7.61;73.75
21828;BME280;11076;47.942;11.804;2023-03-03T14:06:06;94464.78;;;6.92;75.11
21828;BME280;11076;47.942;11.804;2023-03-03T14:11:22;94452.03;;;6.81;76.10
21828;BME280;11076;47.942;11.804;2023-03-03T14:26:58;94461.66;;;7.17;78.67
21828;BME280;11076;47.942;11.804;2023-03-03T14:32:19;94447.16;;;6.85;78.83
21828;BME280;11076;47.942;11.804;2023-03-03T14:37:45;94445.84;;;6.74;78.99
21828;BME280;11076;47.942;11.804;2023-03-03T14:47:54;94451.09;;;6.17;80.23
21828;BME280;11076;47.942;11.804;2023-03-03T14:53:10;94456.63;;;6.44;79.69
21828;BME280;11076;47.942;11.804;2023-03-03T14:58:36;94448.59;;;6.31;80.17
21828;BME280;11076;47.942;11.804;2023-03-03T15:03:51;94456.38;;;6.11;82.02
21828;BME280;11076;47.942;11.804;2023-03-03T15:09:31;94442.34;;;6.45;81.23
21828;BME280;11076;47.942;11.804;2023-03-03T15:14:38;94446.13;;;6.57;80.48
21828;BME280;11076;47.942;11.804;2023-03-03T15:30:53;94450.31;;;6.67;81.40
21828;BME280;11076;47.942;11.804;2023-03-03T15:41:53;94454.47;;;7.11;80.70
21828;BME280;11076;47.942;11.804;2023-03-03T16:03:32;94460.66;;;6.33;80.61
21828;BME280;11076;47.942;11.804;2023-03-03T16:19:21;94478.25;;;5.98;82.55
21828;BME280;11076;47.942;11.804;2023-03-03T16:35:21;94485.97;;;5.42;84.70
21828;BME280;11076;47.942;11.804;2023-03-03T16:40:30;94490.53;;;5.18;85.54
21828;BME280;11076;47.942;11.804;2023-03-03T16:45:34;94500.22;;;4.96;86.41
21828;BME280;11076;47.942;11.804;2023-03-03T17:17:14;94517.97;;;4.11;91.74
21828;BME280;11076;47.942;11.804;2023-03-03T17:49:06;94555.34;;;3.46;96.24
21828;BME280;11076;47.942;11.804;2023-03-03T18:16:29;94579.59;;;2.52;99.57
21828;BME280;11076;47.942;11.804;2023-03-03T18:26:49;94573.97;;;2.23;100.00
21828;BME280;11076;47.942;11.804;2023-03-03T18:47:12;94597.28;;;1.85;100.00
21828;BME280;11076;47.942;11.804;2023-03-03T18:52:25;94597.25;;;1.68;100.00
21828;BME280;11076;47.942;11.804;2023-03-03T18:57:28;94604.09;;;1.53;100.00
21828;BME280;11076;47.942;11.804;2023-03-03T19:02:35;94601.63;;;1.51;100.00
21828;BME280;11076;47.942;11.804;2023-03-03T19:12:50;94611.88;;;1.28;100.00
21828;BME280;11076;47.942;11.804;2023-03-03T19:23:20;94612.13;;;1.17;100.00
21828;BME280;11076;47.942;11.804;2023-03-03T19:28:47;94616.88;;;1.13;100.00
21828;BME280;11076;47.942;11.804;2023-03-03T19:34:16;94613.03;;;0.99;100.00
21828;BME280;11076;47.942;11.804;2023-03-03T20:11:19;94628.06;;;0.63;100.00
21828;BME280;11076;47.942;11.804;2023-03-03T20:16:40;94639.50;;;0.72;100.00
21828;BME280;11076;47.942;11.804;2023-03-03T20:21:47;94641.28;;;0.71;100.00
21828;BME280;11076;47.942;11.804;2023-03-03T20:27:04;94631.88;;;0.69;100.00
21828;BME280;11076;47.942;11.804;2023-03-03T20:54:36;94649.81;;;0.91;100.00
21828;BME280;11076;47.942;11.804;2023-03-03T21:05:16;94651.44;;;1.10;100.00
21828;BME280;11076;47.942;11.804;2023-03-03T21:10:24;94648.03;;;1.18;100.00
21828;BME280;11076;47.942;11.804;2023-03-03T21:15:30;94649.69;;;1.19;100.00
21828;BME280;11076;47.942;11.804;2023-03-03T21:20:33;94657.19;;;1.32;100.00
21828;BME280;11076;47.942;11.804;2023-03-03T21:36:14;94655.44;;;1.49;100.00
21828;BME280;11076;47.942;11.804;2023-03-03T21:41:18;94643.19;;;1.31;100.00
21828;BME280;11076;47.942;11.804;2023-03-03T21:46:23;94650.63;;;1.10;100.00
21828;BME280;11076;47.942;11.804;2023-03-03T21:51:26;94641.00;;;1.01;100.00
21828;BME280;11076;47.942;11.804;2023-03-03T21:56:29;94645.53;;;0.90;100.00
21828;BME280;11076;47.942;11.804;2023-03-03T22:01:32;94648.66;;;0.86;100.00
21828;BME280;11076;47.942;11.804;2023-03-03T22:06:35;94645.00;;;0.87;100.00
21828;BME280;11076;47.942;11.804;2023-03-03T22:11:38;94648.13;;;0.82;100.00
21828;BME280;11076;47.942;11.804;2023-03-03T22:16:41;94655.78;;;0.75;100.00
21828;BME280;11076;47.942;11.804;2023-03-03T22:21:43;94649.63;;;0.67;100.00
21828;BME280;11076;47.942;11.804;2023-03-03T22:26:49;94642.72;;;0.66;100.00
21828;BME280;11076;47.942;11.804;2023-03-03T22:31:51;94653.09;;;0.67;100.00
21828;BME280;11076;47.942;11.804;2023-03-03T22:36:53;94651.38;;;0.76;100.00
21828;BME280;11076;47.942;11.804;2023-03-03T22:41:56;94654.59;;;0.70;100.00
21828;BME280;11076;47.942;11.804;2023-03-03T22:46:58;94655.19;;;0.64;100.00
21828;BME280;11076;47.942;11.804;2023-03-03T22:52:01;94660.22;;;0.75;100.00
21828;BME280;11076;47.942;11.804;2023-03-03T22:57:03;94654.00;;;0.76;100.00
21828;BME280;11076;47.942;11.804;2023-03-03T23:02:06;94653.38;;;0.82;100.00
21828;BME280;11076;47.942;11.804;2023-03-03T23:07:08;94653.38;;;0.82;100.00
21828;BME280;11076;47.942;11.804;2023-03-03T23:12:10;94642.94;;;0.72;100.00
21828;BME280;11076;47.942;11.804;2023-03-03T23:17:13;94649.50;;;0.68;100.00
21828;BME280;11076;47.942;11.804;2023-03-03T23:22:16;94646.53;;;0.71;100.00
21828;BME280;11076;47.942;11.804;2023-03-03T23:27:18;94648.72;;;0.76;100.00
21828;BME280;11076;47.942;11.804;2023-03-03T23:32:21;94655.03;;;0.83;100.00
21828;BME280;11076;47.942;11.804;2023-03-03T23:37:27;94654.41;;;0.89;100.00
21828;BME280;11076;47.942;11.804;2023-03-03T23:42:29;94656.91;;;0.91;100.00
21828;BME280;11076;47.942;11.804;2023-03-03T23:47:32;94645.84;;;0.87;100.00
21828;BME280;11076;47.942;11.804;2023-03-03T23:52:34;94644.19;;;0.86;100.00
21828;BME280;11076;47.942;11.804;2023-03-03T23:57:36;94645.69;;;0.89;100.00
